createdAt,value
2019-01-31T00:01:42.152Z,93.83
2019-01-31T00:04:22.232Z,94.33
2019-01-31T00:07:17.612Z,89.20
2019-01-31T00:09:58.959Z,96.50
2019-01-31T00:12:32.343Z,93.10
2019-01-31T00:15:04.880Z,91.80
2019-01-31T00:17:58.303Z,98.43
2019-01-31T00:20:45.006Z,107.50
2019-01-31T00:23:55.955Z,97.30
2019-01-31T00:27:08.639Z,96.30
2019-01-31T00:30:25.355Z,88.87
2019-01-31T00:33:22.723Z,104.63
2019-01-31T00:36:41.367Z,89.13
2019-01-31T00:39:48.034Z,106.20
2019-01-31T00:42:58.659Z,102.27
2019-01-31T00:46:05.316Z,104.63
2019-01-31T00:49:07.589Z,114.60
2019-01-31T00:51:40.809Z,113.77
2019-01-31T00:54:13.832Z,107.47
2019-01-31T00:57:11.432Z,104.67
2019-01-31T00:59:55.797Z,109.33
2019-01-31T01:02:56.331Z,113.83
2019-01-31T01:05:40.913Z,113.77
2019-01-31T01:08:42.478Z,118.33
2019-01-31T01:11:28.999Z,113.50
2019-01-31T01:14:20.569Z,109.70
2019-01-31T01:17:02.463Z,106.63
2019-01-31T01:20:00.630Z,115.60
2019-01-31T01:23:17.957Z,108.13
2019-01-31T01:26:12.251Z,121.17
2019-01-31T01:28:50.003Z,128.47
2019-01-31T01:31:50.416Z,122.03
2019-01-31T01:35:00.907Z,127.13
2019-01-31T01:37:38.790Z,120.87
2019-01-31T01:40:36.402Z,111.33
2019-01-31T01:43:15.120Z,115.60
2019-01-31T01:46:30.682Z,126.33
2019-01-31T01:49:15.987Z,131.97
2019-01-31T01:52:23.550Z,129.30
2019-01-31T01:55:40.912Z,129.20
2019-01-31T01:58:29.507Z,139.77
2019-01-31T02:01:27.035Z,123.00
2019-01-31T02:04:04.579Z,139.90
2019-01-31T02:07:12.321Z,134.63
2019-01-31T02:09:51.205Z,124.33
2019-01-31T02:12:54.709Z,130.63
2019-01-31T02:16:04.491Z,127.50
2019-01-31T02:18:59.019Z,121.77
2019-01-31T02:21:44.383Z,125.77
2019-01-31T02:24:38.782Z,135.90
2019-01-31T02:27:55.878Z,124.37
2019-01-31T02:30:40.186Z,133.30
2019-01-31T02:33:31.679Z,124.47
2019-01-31T02:36:26.561Z,126.73
2019-01-31T02:39:43.367Z,135.40
2019-01-31T02:42:46.004Z,132.33
2019-01-31T02:45:47.192Z,150.13
2019-01-31T02:48:32.314Z,132.80
2019-01-31T02:51:04.574Z,143.67
2019-01-31T02:54:14.918Z,136.83
2019-01-31T02:57:18.508Z,127.47
2019-01-31T02:59:59.346Z,137.63
2019-01-31T03:02:50.936Z,121.80
2019-01-31T03:05:38.034Z,138.23
2019-01-31T03:08:15.328Z,147.20
2019-01-31T03:10:47.151Z,135.50
2019-01-31T03:13:38.367Z,132.53
2019-01-31T03:16:44.711Z,140.67
2019-01-31T03:19:38.688Z,130.10
2019-01-31T03:22:51.050Z,131.53
2019-01-31T03:25:52.403Z,146.73
2019-01-31T03:28:56.903Z,139.30
2019-01-31T03:31:41.262Z,133.03
2019-01-31T03:34:14.595Z,148.57
2019-01-31T03:37:16.722Z,148.77
2019-01-31T03:39:53.850Z,139.17
2019-01-31T03:42:45.453Z,135.63
2019-01-31T03:45:53.550Z,147.53
2019-01-31T03:48:28.242Z,154.73
2019-01-31T03:51:30.959Z,147.03
2019-01-31T03:54:27.751Z,156.97
2019-01-31T03:57:16.235Z,154.30
2019-01-31T04:00:15.081Z,157.47
2019-01-31T04:02:48.012Z,153.30
2019-01-31T04:05:31.266Z,156.40
2019-01-31T04:08:00.486Z,160.60
2019-01-31T04:10:30.055Z,152.10
2019-01-31T04:12:59.295Z,150.00
2019-01-31T04:15:29.084Z,159.23
2019-01-31T04:17:58.294Z,159.97
2019-01-31T04:20:27.926Z,145.77
2019-01-31T04:22:57.319Z,147.70
2019-01-31T04:25:26.891Z,156.50
2019-01-31T04:27:56.527Z,162.57
2019-01-31T04:30:26.378Z,166.13
2019-01-31T04:32:56.014Z,158.10
2019-01-31T04:35:25.465Z,156.57
2019-01-31T04:37:54.772Z,167.47
2019-01-31T04:40:31.374Z,166.93
2019-01-31T04:42:55.281Z,165.37
2019-01-31T04:45:24.938Z,161.53
2019-01-31T04:47:56.248Z,150.13
2019-01-31T04:50:25.012Z,163.50
2019-01-31T04:52:54.134Z,168.90
2019-01-31T04:55:23.300Z,159.30
2019-01-31T04:57:52.867Z,172.67
2019-01-31T05:00:22.222Z,159.37
2019-01-31T05:02:51.973Z,175.43
2019-01-31T05:05:21.732Z,165.20
2019-01-31T05:07:51.466Z,165.13
2019-01-31T05:10:20.882Z,157.23
2019-01-31T05:12:50.435Z,156.73
2019-01-31T05:15:20.127Z,161.47
2019-01-31T05:17:49.771Z,156.77
2019-01-31T05:20:19.488Z,161.80
2019-01-31T05:22:49.235Z,161.12
2019-01-31T05:25:18.903Z,167.43
2019-01-31T05:27:48.569Z,153.93
2019-01-31T05:30:17.978Z,155.90
2019-01-31T05:32:47.625Z,161.27
2019-01-31T05:35:17.423Z,159.10
2019-01-31T05:37:46.620Z,159.70
2019-01-31T05:40:16.052Z,160.07
2019-01-31T05:42:45.738Z,154.27
2019-01-31T05:45:15.935Z,162.87
2019-01-31T05:47:45.608Z,170.00
2019-01-31T05:50:16.802Z,157.73
2019-01-31T05:52:46.448Z,159.33
2019-01-31T05:55:15.698Z,163.13
2019-01-31T05:57:45.381Z,171.37
2019-01-31T06:00:16.295Z,156.23
2019-01-31T06:02:45.847Z,165.73
2019-01-31T06:05:15.767Z,171.13
2019-01-31T06:07:45.399Z,154.97
2019-01-31T06:10:15.018Z,161.53
2019-01-31T06:12:44.672Z,166.67
2019-01-31T06:15:15.336Z,163.40
2019-01-31T06:17:45.874Z,163.40
2019-01-31T06:20:18.958Z,148.93
2019-01-31T06:22:48.179Z,150.13
2019-01-31T06:25:18.094Z,147.43
2019-01-31T06:27:47.435Z,152.80
2019-01-31T06:30:17.651Z,157.93
2019-01-31T06:32:48.071Z,154.07
2019-01-31T06:35:17.840Z,165.53
2019-01-31T06:37:48.525Z,168.37
2019-01-31T06:40:19.414Z,140.70
2019-01-31T06:42:48.722Z,159.57
2019-01-31T06:45:20.040Z,157.75
2019-01-31T06:47:50.092Z,150.70
2019-01-31T06:50:19.924Z,167.07
2019-01-31T06:52:49.174Z,153.47
2019-01-31T06:55:19.771Z,156.00
2019-01-31T06:57:49.444Z,152.77
2019-01-31T07:00:19.750Z,148.57
2019-01-31T07:02:49.388Z,164.07
2019-01-31T07:05:20.145Z,139.37
2019-01-31T07:07:49.870Z,155.30
2019-01-31T07:10:24.567Z,153.03
2019-01-31T07:12:54.375Z,142.20
2019-01-31T07:15:24.257Z,158.10
2019-01-31T07:17:54.062Z,149.97
2019-01-31T07:20:23.825Z,151.10
2019-01-31T07:22:53.724Z,142.23
2019-01-31T07:25:24.866Z,147.70
2019-01-31T07:27:53.967Z,148.93
2019-01-31T07:30:26.741Z,142.03
2019-01-31T07:32:55.394Z,143.97
2019-01-31T07:35:24.648Z,139.30
2019-01-31T07:37:54.315Z,146.60
2019-01-31T07:40:24.043Z,154.17
2019-01-31T07:42:53.711Z,136.60
2019-01-31T07:45:28.306Z,146.17
2019-01-31T07:47:58.114Z,151.30
2019-01-31T07:50:27.919Z,142.27
2019-01-31T07:52:57.805Z,140.23
2019-01-31T07:55:27.188Z,141.33
2019-01-31T07:57:56.782Z,148.60
2019-01-31T08:00:26.132Z,143.57
2019-01-31T08:02:55.824Z,140.93
2019-01-31T08:05:26.031Z,138.67
2019-01-31T08:07:55.935Z,137.47
2019-01-31T08:10:28.206Z,148.27
2019-01-31T08:12:57.844Z,148.73
2019-01-31T08:15:28.131Z,147.53
2019-01-31T08:17:57.904Z,151.57
2019-01-31T08:20:28.809Z,134.00
2019-01-31T08:23:00.263Z,139.40
2019-01-31T08:25:30.346Z,143.00
2019-01-31T08:28:00.130Z,138.83
2019-01-31T08:30:30.670Z,147.53
2019-01-31T08:33:01.333Z,139.17
2019-01-31T08:35:32.018Z,135.43
2019-01-31T08:38:01.832Z,141.77
2019-01-31T08:40:31.089Z,140.60
2019-01-31T08:43:00.778Z,144.03
2019-01-31T08:45:29.985Z,148.70
2019-01-31T08:47:59.518Z,156.23
2019-01-31T08:50:30.391Z,139.67
2019-01-31T08:53:00.189Z,149.27
2019-01-31T08:55:30.186Z,132.40
2019-01-31T08:57:59.851Z,146.23
2019-01-31T09:00:30.335Z,142.20
2019-01-31T09:03:00.114Z,147.83
2019-01-31T09:05:29.577Z,149.83
2019-01-31T09:07:58.764Z,133.00
2019-01-31T09:10:30.763Z,142.20
2019-01-31T09:13:02.122Z,140.97
2019-01-31T09:15:31.934Z,143.77
2019-01-31T09:18:01.577Z,134.50
2019-01-31T09:20:53.104Z,142.53
2019-01-31T09:23:38.817Z,136.00
2019-01-31T09:26:55.686Z,135.43
2019-01-31T09:29:31.033Z,139.07
2019-01-31T09:32:13.557Z,145.50
2019-01-31T09:35:22.971Z,148.73
2019-01-31T09:37:58.878Z,135.53
2019-01-31T09:40:59.393Z,133.00
2019-01-31T09:43:46.503Z,130.87
2019-01-31T09:46:45.465Z,141.30
2019-01-31T09:49:33.854Z,141.30
2019-01-31T09:52:12.737Z,140.63
2019-01-31T09:54:49.607Z,132.23
2019-01-31T09:57:36.892Z,143.87
2019-01-31T10:00:42.321Z,136.23
2019-01-31T10:03:50.538Z,142.67
2019-01-31T10:07:25.430Z,135.33
2019-01-31T10:10:07.380Z,136.57
2019-01-31T10:12:41.834Z,132.10
2019-01-31T10:15:32.887Z,138.83
2019-01-31T10:18:40.587Z,137.07
2019-01-31T10:21:35.906Z,121.73
2019-01-31T10:24:40.645Z,136.50
2019-01-31T10:27:32.247Z,127.77
2019-01-31T10:30:38.942Z,130.63
2019-01-31T10:33:33.551Z,129.20
2019-01-31T10:36:10.107Z,127.00
2019-01-31T10:39:08.056Z,130.27
2019-01-31T10:42:33.028Z,129.83
2019-01-31T10:45:48.551Z,129.93
2019-01-31T10:48:20.519Z,132.17
2019-01-31T10:51:22.498Z,117.10
2019-01-31T10:53:57.964Z,119.03
2019-01-31T10:56:50.877Z,115.87
2019-01-31T11:00:21.878Z,114.97
2019-01-31T11:03:26.099Z,121.33
2019-01-31T11:06:25.504Z,113.30
2019-01-31T11:09:03.384Z,118.07
2019-01-31T11:11:41.012Z,113.13
2019-01-31T11:14:39.296Z,108.77
2019-01-31T11:17:39.649Z,115.43
2019-01-31T11:20:38.424Z,111.50
2019-01-31T11:23:27.023Z,109.87
2019-01-31T11:26:39.646Z,118.10
2019-01-31T11:29:45.171Z,113.07
2019-01-31T11:32:33.673Z,110.63
2019-01-31T11:35:08.799Z,113.27
2019-01-31T11:38:07.002Z,112.23
2019-01-31T11:41:02.240Z,109.00
2019-01-31T11:44:28.278Z,107.80
2019-01-31T11:47:34.616Z,117.23
2019-01-31T11:50:22.808Z,115.57
2019-01-31T11:53:09.752Z,110.43
2019-01-31T11:56:08.696Z,115.60
2019-01-31T11:59:03.626Z,117.23
2019-01-31T12:01:33.798Z,121.97
2019-01-31T12:04:07.562Z,116.00
2019-01-31T12:06:37.745Z,116.50
2019-01-31T12:09:09.174Z,115.93
2019-01-31T12:11:38.387Z,109.00
2019-01-31T12:14:08.060Z,114.97
2019-01-31T12:16:37.827Z,113.53
2019-01-31T12:19:07.720Z,117.60
2019-01-31T12:21:37.632Z,121.07
2019-01-31T12:24:16.126Z,118.70
2019-01-31T12:26:38.862Z,116.23
2019-01-31T12:29:09.392Z,128.47
2019-01-31T12:31:39.210Z,134.27
2019-01-31T12:34:08.500Z,132.13
2019-01-31T12:36:37.767Z,120.90
2019-01-31T12:39:10.107Z,131.77
2019-01-31T12:41:39.955Z,129.30
2019-01-31T12:44:09.271Z,122.07
2019-01-31T12:46:39.015Z,133.07
2019-01-31T12:49:08.343Z,136.30
2019-01-31T12:51:38.046Z,127.53
2019-01-31T12:54:07.936Z,127.87
2019-01-31T12:56:37.767Z,120.33
2019-01-31T12:59:07.597Z,128.30
2019-01-31T13:01:37.560Z,129.03
2019-01-31T13:04:07.438Z,130.43
2019-01-31T13:06:36.694Z,135.60
2019-01-31T13:09:09.607Z,131.20
2019-01-31T13:11:38.959Z,132.97
2019-01-31T13:14:08.482Z,127.70
2019-01-31T13:16:38.396Z,139.50
2019-01-31T13:19:08.379Z,132.27
2019-01-31T13:21:38.177Z,128.43
2019-01-31T13:24:08.003Z,152.60
2019-01-31T13:26:37.758Z,122.77
2019-01-31T13:29:07.498Z,122.57
2019-01-31T13:31:37.346Z,124.90
2019-01-31T13:34:06.583Z,126.00
2019-01-31T13:36:36.192Z,124.17
2019-01-31T13:39:12.427Z,124.23
2019-01-31T13:41:42.010Z,123.07
2019-01-31T13:44:11.794Z,129.67
2019-01-31T13:46:41.645Z,128.40
2019-01-31T13:49:11.525Z,124.90
2019-01-31T13:51:41.339Z,129.70
2019-01-31T13:54:11.150Z,130.37
2019-01-31T13:56:45.669Z,118.73
2019-01-31T13:59:12.201Z,129.23
2019-01-31T14:01:42.424Z,119.93
2019-01-31T14:04:12.424Z,127.63
2019-01-31T14:06:42.152Z,127.90
2019-01-31T14:09:12.352Z,127.97
2019-01-31T14:11:42.170Z,125.90
2019-01-31T14:14:12.440Z,122.60
2019-01-31T14:16:47.661Z,124.23
2019-01-31T14:19:12.487Z,130.23
2019-01-31T14:21:44.086Z,125.37
2019-01-31T14:24:13.052Z,124.63
2019-01-31T14:26:42.484Z,129.23
2019-01-31T14:29:12.162Z,135.60
2019-01-31T14:31:41.862Z,127.63
2019-01-31T14:34:11.600Z,132.10
2019-01-31T14:36:42.336Z,123.73
2019-01-31T14:39:12.744Z,122.67
2019-01-31T14:41:42.386Z,126.23
2019-01-31T14:44:20.126Z,119.87
2019-01-31T14:46:43.078Z,133.90
2019-01-31T14:49:12.738Z,133.00
2019-01-31T14:51:42.003Z,117.70
2019-01-31T14:54:11.623Z,128.07
2019-01-31T14:56:40.869Z,125.80
2019-01-31T14:59:10.460Z,129.97
2019-01-31T15:01:50.839Z,116.77
2019-01-31T15:04:46.861Z,125.23
2019-01-31T15:07:16.740Z,120.17
2019-01-31T15:09:46.030Z,128.60
2019-01-31T15:12:15.721Z,116.53
2019-01-31T15:14:45.084Z,125.57
2019-01-31T15:17:14.978Z,123.07
2019-01-31T15:19:44.345Z,118.37
2019-01-31T15:22:13.542Z,125.27
2019-01-31T15:24:43.019Z,121.27
2019-01-31T15:27:28.104Z,123.13
2019-01-31T15:29:50.805Z,131.10
2019-01-31T15:32:20.759Z,119.90
2019-01-31T15:34:53.501Z,130.47
2019-01-31T15:37:26.860Z,132.07
2019-01-31T15:39:59.446Z,116.13
2019-01-31T15:42:36.568Z,128.83
2019-01-31T15:45:08.068Z,129.77
2019-01-31T15:47:40.794Z,127.50
2019-01-31T15:50:12.875Z,118.07
2019-01-31T15:52:42.741Z,134.60
2019-01-31T15:55:15.454Z,134.23
2019-01-31T15:57:46.092Z,126.97
2019-01-31T16:00:40.213Z,121.77
2019-01-31T16:03:10.444Z,124.20
2019-01-31T16:05:40.182Z,127.60
2019-01-31T16:08:10.380Z,123.53
2019-01-31T16:10:40.291Z,130.03
2019-01-31T16:13:09.834Z,126.73
2019-01-31T16:15:40.021Z,126.57
2019-01-31T16:18:11.149Z,118.53
2019-01-31T16:20:41.381Z,127.77
2019-01-31T16:23:12.412Z,129.23
2019-01-31T16:25:41.786Z,120.27
2019-01-31T16:28:11.523Z,129.03
2019-01-31T16:30:41.015Z,124.50
2019-01-31T16:33:10.200Z,135.37
2019-01-31T16:35:40.824Z,130.93
2019-01-31T16:38:11.014Z,128.40
2019-01-31T16:40:40.275Z,124.70
2019-01-31T16:43:10.147Z,130.00
2019-01-31T16:45:39.998Z,124.70
2019-01-31T16:48:09.907Z,131.03
2019-01-31T16:50:39.819Z,122.60
2019-01-31T16:53:10.096Z,124.67
2019-01-31T16:55:39.347Z,117.73
2019-01-31T16:58:09.175Z,127.90
2019-01-31T17:00:38.831Z,119.97
2019-01-31T17:03:08.477Z,124.30
2019-01-31T17:05:37.872Z,121.00
2019-01-31T17:08:07.948Z,116.27
2019-01-31T17:10:37.811Z,130.43
2019-01-31T17:13:07.276Z,122.67
2019-01-31T17:15:36.615Z,129.07
2019-01-31T17:18:06.330Z,133.30
2019-01-31T17:20:38.525Z,124.03
2019-01-31T17:23:07.894Z,125.57
2019-01-31T17:25:37.609Z,125.30
2019-01-31T17:28:07.643Z,130.97
2019-01-31T17:30:37.007Z,124.60
2019-01-31T17:33:06.283Z,124.40
2019-01-31T17:35:36.080Z,130.53
2019-01-31T17:38:06.396Z,130.20
2019-01-31T17:40:38.440Z,122.93
2019-01-31T17:43:09.215Z,126.40
2019-01-31T17:45:38.922Z,132.40
2019-01-31T17:48:12.066Z,121.27
2019-01-31T17:50:41.400Z,120.13
2019-01-31T17:53:11.042Z,120.43
2019-01-31T17:55:41.735Z,121.17
2019-01-31T17:58:11.628Z,120.63
2019-01-31T18:00:46.167Z,118.73
2019-01-31T18:03:15.841Z,125.93
2019-01-31T18:05:46.489Z,125.53
2019-01-31T18:08:16.234Z,118.90
2019-01-31T18:10:45.519Z,130.40
2019-01-31T18:13:14.720Z,130.53
2019-01-31T18:15:44.435Z,132.37
2019-01-31T18:18:13.661Z,133.87
2019-01-31T18:20:43.312Z,131.77
2019-01-31T18:23:12.647Z,129.17
2019-01-31T18:25:41.854Z,135.03
2019-01-31T18:28:12.567Z,128.40
2019-01-31T18:30:42.409Z,137.63
2019-01-31T18:33:12.216Z,131.20
2019-01-31T18:35:41.951Z,127.27
2019-01-31T18:38:11.667Z,132.70
2019-01-31T18:40:41.388Z,136.77
2019-01-31T18:43:10.648Z,127.77
2019-01-31T18:45:40.395Z,141.40
2019-01-31T18:48:10.128Z,136.50
2019-01-31T18:50:41.810Z,126.23
2019-01-31T18:53:11.542Z,124.37
2019-01-31T18:55:44.322Z,140.80
2019-01-31T18:58:14.499Z,132.07
2019-01-31T19:00:45.087Z,131.70
2019-01-31T19:03:14.359Z,140.13
2019-01-31T19:05:44.193Z,126.47
2019-01-31T19:08:15.647Z,143.13
2019-01-31T19:10:46.644Z,141.87
2019-01-31T19:13:17.011Z,131.87
2019-01-31T19:15:46.594Z,133.30
2019-01-31T19:18:16.321Z,135.77
2019-01-31T19:20:46.492Z,133.93
2019-01-31T19:23:18.965Z,133.03
2019-01-31T19:25:49.723Z,134.57
2019-01-31T19:28:19.329Z,136.27
2019-01-31T19:30:57.851Z,135.87
2019-01-31T19:33:35.369Z,137.03
2019-01-31T19:36:12.614Z,136.47
2019-01-31T19:38:51.996Z,144.10
2019-01-31T19:41:30.617Z,142.87
2019-01-31T19:44:00.631Z,139.97
2019-01-31T19:46:30.495Z,142.30
2019-01-31T19:49:00.193Z,142.83
2019-01-31T19:51:29.918Z,138.57
2019-01-31T19:54:04.541Z,131.97
2019-01-31T19:56:36.317Z,136.43
2019-01-31T19:59:14.518Z,144.00
2019-01-31T20:01:43.742Z,141.33
2019-01-31T20:04:14.426Z,141.63
2019-01-31T20:06:46.268Z,141.80
2019-01-31T20:09:20.309Z,147.93
2019-01-31T20:11:50.228Z,152.73
2019-01-31T20:14:20.024Z,146.17
2019-01-31T20:16:49.758Z,135.23
2019-01-31T20:19:19.498Z,148.17
2019-01-31T20:21:52.076Z,143.87
2019-01-31T20:24:21.328Z,150.77
2019-01-31T20:26:50.774Z,144.30
2019-01-31T20:29:20.618Z,141.00
2019-01-31T20:31:50.141Z,140.23
2019-01-31T20:34:19.292Z,136.90
2019-01-31T20:36:49.911Z,138.40
2019-01-31T20:39:19.619Z,139.17
2019-01-31T20:41:54.226Z,149.93
2019-01-31T20:44:20.735Z,140.87
2019-01-31T20:46:50.624Z,140.23
2019-01-31T20:49:20.335Z,143.57
2019-01-31T20:51:50.111Z,149.03
2019-01-31T20:54:19.861Z,137.30
2019-01-31T20:56:51.079Z,140.77
2019-01-31T20:59:20.535Z,150.23
2019-01-31T21:01:50.276Z,141.93
2019-01-31T21:04:20.204Z,144.27
2019-01-31T21:06:49.864Z,149.03
2019-01-31T21:09:19.587Z,145.27
2019-01-31T21:11:48.811Z,140.43
2019-01-31T21:14:18.541Z,146.60
2019-01-31T21:16:51.985Z,157.50
2019-01-31T21:19:19.591Z,155.00
2019-01-31T21:21:49.283Z,153.20
2019-01-31T21:24:18.998Z,158.83
2019-01-31T21:26:49.816Z,154.00
2019-01-31T21:29:19.519Z,150.50
2019-01-31T21:31:49.615Z,151.37
2019-01-31T21:34:18.862Z,147.73
2019-01-31T21:36:49.075Z,153.83
2019-01-31T21:39:18.469Z,153.47
2019-01-31T21:41:47.775Z,148.17
2019-01-31T21:44:17.533Z,161.17
2019-01-31T21:46:47.218Z,164.93
2019-01-31T21:49:17.006Z,158.47
2019-01-31T21:51:46.760Z,166.63
2019-01-31T21:54:16.497Z,162.10
2019-01-31T21:56:46.300Z,178.23
2019-01-31T21:59:15.600Z,167.37
2019-01-31T22:01:45.270Z,170.00
2019-01-31T22:04:14.537Z,170.03
2019-01-31T22:06:44.136Z,164.23
2019-01-31T22:09:14.194Z,173.40
2019-01-31T22:11:43.945Z,169.93
2019-01-31T22:14:13.971Z,173.57
2019-01-31T22:16:43.687Z,167.40
2019-01-31T22:19:13.483Z,183.73
2019-01-31T22:21:43.214Z,171.33
2019-01-31T22:24:12.958Z,172.70
2019-01-31T22:26:42.627Z,169.30
2019-01-31T22:29:12.425Z,169.20
2019-01-31T22:31:42.152Z,173.17
2019-01-31T22:34:11.819Z,186.53
2019-01-31T22:36:41.574Z,174.13
2019-01-31T22:39:10.866Z,173.50
2019-01-31T22:41:40.580Z,179.97
2019-01-31T22:44:10.340Z,168.17
2019-01-31T22:46:40.143Z,170.13
2019-01-31T22:49:09.900Z,168.37
2019-01-31T22:51:39.571Z,178.23
2019-01-31T22:54:09.380Z,159.87
2019-01-31T22:56:39.164Z,166.77
2019-01-31T22:59:08.811Z,177.00
2019-01-31T23:01:41.723Z,170.90
2019-01-31T23:04:11.307Z,169.17
2019-01-31T23:06:40.651Z,165.57
2019-01-31T23:09:10.927Z,168.23
2019-01-31T23:11:40.680Z,171.70
2019-01-31T23:14:10.428Z,162.37
2019-01-31T23:16:40.157Z,162.90
2019-01-31T23:19:10.018Z,161.37
2019-01-31T23:21:39.715Z,172.87
2019-01-31T23:24:09.522Z,176.93
2019-01-31T23:26:39.305Z,171.97
2019-01-31T23:29:09.014Z,180.73
2019-01-31T23:31:38.409Z,194.00
2019-01-31T23:34:08.124Z,181.27
2019-01-31T23:36:37.868Z,169.40
2019-01-31T23:39:10.483Z,181.80
2019-01-31T23:41:40.277Z,188.67
2019-01-31T23:44:10.018Z,178.30
2019-01-31T23:46:39.792Z,167.47
2019-01-31T23:49:09.468Z,181.03
2019-01-31T23:51:39.168Z,189.87
2019-01-31T23:54:08.826Z,169.07
2019-01-31T23:56:38.583Z,191.07
2019-01-31T23:59:08.330Z,188.27
